West Columbia, SC

1:20 AM EDT on September 03, 2014 (GMT -0400)
Near Downtown | Change Station
CLOSE
Current Station
Personal Weather Station
Location: Columbia, SC
Elevation: 260 ft
Nearby Weather Stations

Elev 260 ft 34.02 °N, 81.07 °W | Updated 16 minutes ago

Partly Cloudy
Partly Cloudy
72.0 °F
Feels Like 72.0 °F
N
0.0
Wind Variable Wind from North
Gusts 0.0 mph

Today
High -- | Low -- °F
--% Chance of Precip.
Yesterday
High -- | Low -- °F
Precip. -- in
6:59 AM 7:47 PM
First Quarter, 58% visible
Pressure 30.02 in
Visibility 10.0 miles
Clouds Few 15000 ft
Dew Point 71 °F
Humidity 97%
Rainfall -999.00 in
Snow Depth Not available.
UV 0 out of 12
Pollen 9.70 out of 12
Ozone Good
Flu Activity Not available.
METAR KCAE 030456Z 00000KT 10SM FEW150 23/21 A3003 RMK AO2 SLP166 T02330211 403720233

More Conditions Fewer Conditions

Pressure 30.02 in
Visibility 10.0 miles
Clouds Few 15000 ft
Dew Point 71 °F
Humidity 97%
Rainfall -999.00 in
Snow Depth Not available.
UV 0 out of 12
Pollen 9.70 out of 12
Ozone Good
Flu Activity Not available.
METAR KCAE 030456Z 00000KT 10SM FEW150 23/21 A3003 RMK AO2 SLP166 T02330211 403720233

More Conditions Fewer Conditions

10-Day Weather Forecast

Almanac

Astronomy

Sep. 03, 2014 Rise Set
Actual Time 6:59 AM EDT 7:47 PM EDT
Civil Twilight 6:33 AM EDT 8:12 PM EDT
Nautical Twilight 6:03 AM EDT 8:42 PM EDT
Astronomical Twilight 5:32 AM EDT 9:13 PM EDT
Moon 3:19 PM EDT 1:00 AM EDT
Length of Visible Light 13h 38m
Length of Day
12h 48m
Tomorrow will be 2m 1s shorter.
First Quarter, 58% of the Moon is Illuminated
Today
First Quarter
Sep 8
Full
Sep 15
Last Quarter
Sep 24
New
Oct 1
First Quarter

Today's Extremes

State Highs State Lows

Community

WunderPhotos

Upload Photos

1,749,877 photos uploaded!

Nearby

Air Quality

  Air Quality AQ Index Pollutant
Yesterday Good
OZONE
Current Good
OZONE
Tuesday Good
OZONE
Wednesday Good
OZONE

Snow Depth

Station Depth Elevation
No new snow has been reported.

Earthquake Activity

City Distance Mag. Time & Date
No recent earthquake activity has been reported nearby.
Minimum magnitude displayed is 2.5.

Coastal Water Temperatures

Place Temperature
No Stations Reporting

Nearby Weather Stations